sensor_id;sensor_type;location;lat;lon;timestamp;P1;durP1;ratioP1;P2;durP2;ratioP2
43606;SDS011;29197;44.788;10.366;2022-11-10T00:01:38;45.95;;;28.77;;
43606;SDS011;29197;44.788;10.366;2022-11-10T00:04:30;44.08;;;28.40;;
43606;SDS011;29197;44.788;10.366;2022-11-10T00:07:22;45.95;;;29.38;;
43606;SDS011;29197;44.788;10.366;2022-11-10T00:10:13;44.05;;;29.08;;
43606;SDS011;29197;44.788;10.366;2022-11-10T00:13:02;40.03;;;27.73;;
43606;SDS011;29197;44.788;10.366;2022-11-10T00:15:51;48.45;;;31.30;;
43606;SDS011;29197;44.788;10.366;2022-11-10T00:18:58;45.20;;;27.30;;
43606;SDS011;29197;44.788;10.366;2022-11-10T00:21:49;44.08;;;29.50;;
43606;SDS011;29197;44.788;10.366;2022-11-10T00:24:40;42.50;;;28.77;;
43606;SDS011;29197;44.788;10.366;2022-11-10T00:27:31;46.15;;;29.33;;
43606;SDS011;29197;44.788;10.366;2022-11-10T00:30:20;41.30;;;28.98;;
43606;SDS011;29197;44.788;10.366;2022-11-10T00:33:10;42.17;;;27.73;;
43606;SDS011;29197;44.788;10.366;2022-11-10T00:35:59;43.53;;;29.98;;
43606;SDS011;29197;44.788;10.366;2022-11-10T00:38:50;47.78;;;30.35;;
43606;SDS011;29197;44.788;10.366;2022-11-10T00:41:40;45.42;;;28.35;;
43606;SDS011;29197;44.788;10.366;2022-11-10T00:44:30;47.58;;;30.05;;
43606;SDS011;29197;44.788;10.366;2022-11-10T00:47:20;43.47;;;27.48;;
43606;SDS011;29197;44.788;10.366;2022-11-10T00:50:09;45.78;;;29.13;;
43606;SDS011;29197;44.788;10.366;2022-11-10T00:52:59;47.60;;;29.58;;
43606;SDS011;29197;44.788;10.366;2022-11-10T00:55:50;41.92;;;28.45;;
43606;SDS011;29197;44.788;10.366;2022-11-10T00:58:39;44.53;;;30.13;;
43606;SDS011;29197;44.788;10.366;2022-11-10T01:01:28;42.80;;;28.70;;
43606;SDS011;29197;44.788;10.366;2022-11-10T01:04:17;43.08;;;29.85;;
43606;SDS011;29197;44.788;10.366;2022-11-10T01:07:06;46.83;;;30.65;;
43606;SDS011;29197;44.788;10.366;2022-11-10T01:09:55;48.67;;;29.67;;
43606;SDS011;29197;44.788;10.366;2022-11-10T01:12:46;44.00;;;29.95;;
43606;SDS011;29197;44.788;10.366;2022-11-10T01:15:37;45.72;;;29.08;;
43606;SDS011;29197;44.788;10.366;2022-11-10T01:18:27;44.83;;;28.83;;
43606;SDS011;29197;44.788;10.366;2022-11-10T01:21:16;44.30;;;30.15;;
43606;SDS011;29197;44.788;10.366;2022-11-10T01:24:05;41.92;;;29.25;;
43606;SDS011;29197;44.788;10.366;2022-11-10T01:26:55;51.67;;;32.78;;
43606;SDS011;29197;44.788;10.366;2022-11-10T01:29:47;46.30;;;31.23;;
43606;SDS011;29197;44.788;10.366;2022-11-10T01:32:36;40.50;;;28.92;;
43606;SDS011;29197;44.788;10.366;2022-11-10T01:35:25;47.78;;;30.45;;
43606;SDS011;29197;44.788;10.366;2022-11-10T01:38:15;44.58;;;31.17;;
43606;SDS011;29197;44.788;10.366;2022-11-10T01:41:05;49.30;;;31.10;;
43606;SDS011;29197;44.788;10.366;2022-11-10T01:47:00;45.65;;;30.30;;
43606;SDS011;29197;44.788;10.366;2022-11-10T01:49:49;44.08;;;29.42;;
43606;SDS011;29197;44.788;10.366;2022-11-10T01:52:39;47.22;;;31.77;;
43606;SDS011;29197;44.788;10.366;2022-11-10T01:55:30;45.35;;;30.20;;
43606;SDS011;29197;44.788;10.366;2022-11-10T01:58:20;44.70;;;30.90;;
43606;SDS011;29197;44.788;10.366;2022-11-10T02:01:10;46.00;;;31.77;;
43606;SDS011;29197;44.788;10.366;2022-11-10T02:04:03;45.45;;;31.30;;
43606;SDS011;29197;44.788;10.366;2022-11-10T02:06:53;52.80;;;33.67;;
43606;SDS011;29197;44.788;10.366;2022-11-10T02:09:42;51.85;;;32.67;;
43606;SDS011;29197;44.788;10.366;2022-11-10T02:12:32;46.05;;;31.95;;
43606;SDS011;29197;44.788;10.366;2022-11-10T02:15:24;45.65;;;32.17;;
43606;SDS011;29197;44.788;10.366;2022-11-10T02:18:14;49.22;;;31.15;;
43606;SDS011;29197;44.788;10.366;2022-11-10T02:21:05;51.97;;;32.15;;
43606;SDS011;29197;44.788;10.366;2022-11-10T02:23:55;46.88;;;31.70;;
43606;SDS011;29197;44.788;10.366;2022-11-10T02:26:45;45.50;;;31.10;;
43606;SDS011;29197;44.788;10.366;2022-11-10T02:29:36;51.25;;;32.97;;
43606;SDS011;29197;44.788;10.366;2022-11-10T02:32:25;52.67;;;33.83;;
43606;SDS011;29197;44.788;10.366;2022-11-10T02:35:15;47.72;;;31.98;;
43606;SDS011;29197;44.788;10.366;2022-11-10T02:38:05;47.92;;;31.20;;
43606;SDS011;29197;44.788;10.366;2022-11-10T02:40:55;50.85;;;33.92;;
43606;SDS011;29197;44.788;10.366;2022-11-10T02:43:45;52.50;;;33.00;;
43606;SDS011;29197;44.788;10.366;2022-11-10T02:46:34;52.90;;;34.75;;
43606;SDS011;29197;44.788;10.366;2022-11-10T02:49:23;52.22;;;35.58;;
43606;SDS011;29197;44.788;10.366;2022-11-10T02:52:12;53.75;;;36.63;;
43606;SDS011;29197;44.788;10.366;2022-11-10T02:55:03;63.65;;;41.50;;
43606;SDS011;29197;44.788;10.366;2022-11-10T02:57:53;64.03;;;40.45;;
43606;SDS011;29197;44.788;10.366;2022-11-10T03:00:42;57.95;;;37.92;;
43606;SDS011;29197;44.788;10.366;2022-11-10T03:03:31;59.65;;;38.58;;
43606;SDS011;29197;44.788;10.366;2022-11-10T03:06:21;59.20;;;38.08;;
43606;SDS011;29197;44.788;10.366;2022-11-10T03:09:10;61.67;;;37.83;;
43606;SDS011;29197;44.788;10.366;2022-11-10T03:12:01;53.45;;;34.83;;
43606;SDS011;29197;44.788;10.366;2022-11-10T03:14:51;58.13;;;37.25;;
43606;SDS011;29197;44.788;10.366;2022-11-10T03:17:40;57.60;;;35.97;;
43606;SDS011;29197;44.788;10.366;2022-11-10T03:20:30;58.97;;;36.05;;
43606;SDS011;29197;44.788;10.366;2022-11-10T03:23:19;60.72;;;37.45;;
43606;SDS011;29197;44.788;10.366;2022-11-10T03:26:09;55.03;;;35.42;;
43606;SDS011;29197;44.788;10.366;2022-11-10T03:28:59;53.40;;;34.38;;
43606;SDS011;29197;44.788;10.366;2022-11-10T03:31:49;53.63;;;36.00;;
43606;SDS011;29197;44.788;10.366;2022-11-10T03:34:38;56.00;;;35.38;;
43606;SDS011;29197;44.788;10.366;2022-11-10T03:37:27;59.13;;;37.17;;
43606;SDS011;29197;44.788;10.366;2022-11-10T03:40:16;53.28;;;33.90;;
43606;SDS011;29197;44.788;10.366;2022-11-10T03:43:06;54.60;;;37.03;;
43606;SDS011;29197;44.788;10.366;2022-11-10T03:45:57;56.88;;;37.45;;
43606;SDS011;29197;44.788;10.366;2022-11-10T03:48:46;59.60;;;36.40;;
43606;SDS011;29197;44.788;10.366;2022-11-10T03:51:39;58.17;;;38.38;;
43606;SDS011;29197;44.788;10.366;2022-11-10T03:54:28;58.38;;;37.92;;
43606;SDS011;29197;44.788;10.366;2022-11-10T03:57:18;63.13;;;36.38;;
43606;SDS011;29197;44.788;10.366;2022-11-10T04:00:07;56.47;;;36.28;;
43606;SDS011;29197;44.788;10.366;2022-11-10T04:03:00;60.85;;;38.28;;
43606;SDS011;29197;44.788;10.366;2022-11-10T04:05:49;57.72;;;35.65;;
43606;SDS011;29197;44.788;10.366;2022-11-10T04:08:55;55.35;;;34.47;;
43606;SDS011;29197;44.788;10.366;2022-11-10T04:11:47;55.88;;;36.00;;
43606;SDS011;29197;44.788;10.366;2022-11-10T04:14:53;58.75;;;36.85;;
43606;SDS011;29197;44.788;10.366;2022-11-10T04:18:02;66.78;;;40.63;;
43606;SDS011;29197;44.788;10.366;2022-11-10T04:21:04;56.05;;;36.13;;
43606;SDS011;29197;44.788;10.366;2022-11-10T04:23:54;51.95;;;34.63;;
43606;SDS011;29197;44.788;10.366;2022-11-10T04:26:44;56.78;;;34.63;;
43606;SDS011;29197;44.788;10.366;2022-11-10T04:29:34;51.70;;;35.50;;
43606;SDS011;29197;44.788;10.366;2022-11-10T04:32:24;53.97;;;34.75;;
43606;SDS011;29197;44.788;10.366;2022-11-10T04:35:15;52.92;;;34.38;;
43606;SDS011;29197;44.788;10.366;2022-11-10T04:38:04;61.47;;;35.92;;
43606;SDS011;29197;44.788;10.366;2022-11-10T04:40:53;51.63;;;35.28;;
43606;SDS011;29197;44.788;10.366;2022-11-10T04:43:42;56.50;;;35.80;;
43606;SDS011;29197;44.788;10.366;2022-11-10T04:46:32;58.20;;;36.65;;
43606;SDS011;29197;44.788;10.366;2022-11-10T04:49:22;59.10;;;33.80;;
43606;SDS011;29197;44.788;10.366;2022-11-10T04:52:13;54.42;;;35.38;;
43606;SDS011;29197;44.788;10.366;2022-11-10T04:55:03;54.42;;;36.33;;
43606;SDS011;29197;44.788;10.366;2022-11-10T04:57:53;50.75;;;33.35;;
43606;SDS011;29197;44.788;10.366;2022-11-10T05:00:43;57.42;;;36.60;;
43606;SDS011;29197;44.788;10.366;2022-11-10T05:03:32;54.90;;;36.40;;
43606;SDS011;29197;44.788;10.366;2022-11-10T05:06:22;58.88;;;36.97;;
43606;SDS011;29197;44.788;10.366;2022-11-10T05:09:13;57.45;;;35.95;;
43606;SDS011;29197;44.788;10.366;2022-11-10T05:12:02;63.67;;;38.97;;
43606;SDS011;29197;44.788;10.366;2022-11-10T05:14:51;58.20;;;36.85;;
43606;SDS011;29197;44.788;10.366;2022-11-10T05:17:41;60.92;;;36.15;;
43606;SDS011;29197;44.788;10.366;2022-11-10T05:20:31;62.40;;;38.42;;
43606;SDS011;29197;44.788;10.366;2022-11-10T05:23:20;56.83;;;37.33;;
43606;SDS011;29197;44.788;10.366;2022-11-10T05:26:27;61.85;;;38.70;;
43606;SDS011;29197;44.788;10.366;2022-11-10T05:29:16;65.22;;;39.15;;
43606;SDS011;29197;44.788;10.366;2022-11-10T05:32:05;67.38;;;40.65;;
43606;SDS011;29197;44.788;10.366;2022-11-10T05:34:54;62.83;;;40.40;;
43606;SDS011;29197;44.788;10.366;2022-11-10T05:37:43;68.93;;;39.67;;
43606;SDS011;29197;44.788;10.366;2022-11-10T05:40:32;66.30;;;40.15;;
43606;SDS011;29197;44.788;10.366;2022-11-10T05:43:23;69.70;;;40.78;;
43606;SDS011;29197;44.788;10.366;2022-11-10T05:46:13;68.82;;;42.35;;
43606;SDS011;29197;44.788;10.366;2022-11-10T05:49:02;69.13;;;42.70;;
43606;SDS011;29197;44.788;10.366;2022-11-10T05:51:51;68.13;;;39.08;;
43606;SDS011;29197;44.788;10.366;2022-11-10T05:54:40;71.20;;;41.10;;
43606;SDS011;29197;44.788;10.366;2022-11-10T05:57:29;70.88;;;41.92;;
43606;SDS011;29197;44.788;10.366;2022-11-10T06:00:21;68.05;;;41.33;;
43606;SDS011;29197;44.788;10.366;2022-11-10T06:03:12;65.43;;;38.38;;
43606;SDS011;29197;44.788;10.366;2022-11-10T06:06:02;70.25;;;40.22;;
43606;SDS011;29197;44.788;10.366;2022-11-10T06:08:52;66.10;;;40.35;;
43606;SDS011;29197;44.788;10.366;2022-11-10T06:11:42;66.35;;;40.53;;
43606;SDS011;29197;44.788;10.366;2022-11-10T06:14:31;58.20;;;37.60;;
43606;SDS011;29197;44.788;10.366;2022-11-10T06:17:22;58.70;;;35.83;;
43606;SDS011;29197;44.788;10.366;2022-11-10T06:20:11;56.65;;;35.20;;
43606;SDS011;29197;44.788;10.366;2022-11-10T06:23:03;58.28;;;36.47;;
43606;SDS011;29197;44.788;10.366;2022-11-10T06:25:53;59.35;;;37.03;;
43606;SDS011;29197;44.788;10.366;2022-11-10T06:28:42;58.90;;;35.92;;
43606;SDS011;29197;44.788;10.366;2022-11-10T06:31:32;61.55;;;36.45;;
43606;SDS011;29197;44.788;10.366;2022-11-10T06:34:22;64.18;;;37.25;;
43606;SDS011;29197;44.788;10.366;2022-11-10T06:37:12;64.35;;;38.72;;
43606;SDS011;29197;44.788;10.366;2022-11-10T06:40:02;53.42;;;33.83;;
43606;SDS011;29197;44.788;10.366;2022-11-10T06:42:51;55.53;;;35.78;;
43606;SDS011;29197;44.788;10.366;2022-11-10T06:45:40;57.88;;;36.42;;
43606;SDS011;29197;44.788;10.366;2022-11-10T06:48:30;54.33;;;34.05;;
43606;SDS011;29197;44.788;10.366;2022-11-10T06:51:21;55.03;;;33.53;;
43606;SDS011;29197;44.788;10.366;2022-11-10T06:54:10;53.97;;;33.05;;
43606;SDS011;29197;44.788;10.366;2022-11-10T06:56:59;56.22;;;32.67;;
43606;SDS011;29197;44.788;10.366;2022-11-10T06:59:49;52.53;;;31.52;;
43606;SDS011;29197;44.788;10.366;2022-11-10T07:02:38;53.47;;;32.95;;
43606;SDS011;29197;44.788;10.366;2022-11-10T07:05:27;50.25;;;31.40;;
43606;SDS011;29197;44.788;10.366;2022-11-10T07:08:17;58.00;;;35.30;;
43606;SDS011;29197;44.788;10.366;2022-11-10T07:11:07;55.10;;;33.97;;
43606;SDS011;29197;44.788;10.366;2022-11-10T07:13:56;57.70;;;35.40;;
43606;SDS011;29197;44.788;10.366;2022-11-10T07:16:46;55.70;;;33.95;;
43606;SDS011;29197;44.788;10.366;2022-11-10T07:19:35;56.88;;;34.28;;
43606;SDS011;29197;44.788;10.366;2022-11-10T07:22:24;56.53;;;34.88;;
43606;SDS011;29197;44.788;10.366;2022-11-10T07:25:15;52.97;;;33.63;;
43606;SDS011;29197;44.788;10.366;2022-11-10T07:28:04;56.60;;;34.25;;
43606;SDS011;29197;44.788;10.366;2022-11-10T07:30:56;53.17;;;32.55;;
43606;SDS011;29197;44.788;10.366;2022-11-10T07:33:48;55.72;;;33.85;;
43606;SDS011;29197;44.788;10.366;2022-11-10T07:36:40;55.60;;;34.10;;
43606;SDS011;29197;44.788;10.366;2022-11-10T07:39:30;53.97;;;32.83;;
43606;SDS011;29197;44.788;10.366;2022-11-10T07:42:20;53.30;;;32.63;;
43606;SDS011;29197;44.788;10.366;2022-11-10T07:45:10;57.92;;;35.60;;
43606;SDS011;29197;44.788;10.366;2022-11-10T07:48:00;64.35;;;36.22;;
43606;SDS011;29197;44.788;10.366;2022-11-10T07:50:50;65.68;;;38.33;;
43606;SDS011;29197;44.788;10.366;2022-11-10T07:53:39;61.13;;;36.55;;
43606;SDS011;29197;44.788;10.366;2022-11-10T07:56:29;65.38;;;37.47;;
43606;SDS011;29197;44.788;10.366;2022-11-10T07:59:21;56.55;;;34.78;;
43606;SDS011;29197;44.788;10.366;2022-11-10T08:02:10;56.85;;;33.55;;
43606;SDS011;29197;44.788;10.366;2022-11-10T08:04:59;54.15;;;33.15;;
43606;SDS011;29197;44.788;10.366;2022-11-10T08:07:48;53.97;;;30.92;;
43606;SDS011;29197;44.788;10.366;2022-11-10T08:10:40;47.22;;;30.35;;
43606;SDS011;29197;44.788;10.366;2022-11-10T08:13:29;54.60;;;33.58;;
43606;SDS011;29197;44.788;10.366;2022-11-10T08:16:20;57.03;;;33.80;;
43606;SDS011;29197;44.788;10.366;2022-11-10T08:19:10;54.28;;;32.25;;
43606;SDS011;29197;44.788;10.366;2022-11-10T08:21:59;53.72;;;33.15;;
43606;SDS011;29197;44.788;10.366;2022-11-10T08:24:49;53.30;;;33.10;;
43606;SDS011;29197;44.788;10.366;2022-11-10T08:27:39;52.58;;;32.75;;
43606;SDS011;29197;44.788;10.366;2022-11-10T08:30:28;52.47;;;32.47;;
43606;SDS011;29197;44.788;10.366;2022-11-10T08:33:19;57.22;;;34.65;;
43606;SDS011;29197;44.788;10.366;2022-11-10T08:36:10;65.57;;;39.42;;
43606;SDS011;29197;44.788;10.366;2022-11-10T08:38:59;67.70;;;39.53;;
43606;SDS011;29197;44.788;10.366;2022-11-10T08:41:49;62.95;;;37.72;;
43606;SDS011;29197;44.788;10.366;2022-11-10T08:44:38;67.65;;;40.05;;
43606;SDS011;29197;44.788;10.366;2022-11-10T08:47:27;69.95;;;41.83;;
43606;SDS011;29197;44.788;10.366;2022-11-10T08:50:18;70.93;;;41.88;;
43606;SDS011;29197;44.788;10.366;2022-11-10T08:53:08;67.80;;;40.17;;
43606;SDS011;29197;44.788;10.366;2022-11-10T08:55:58;62.95;;;37.20;;
43606;SDS011;29197;44.788;10.366;2022-11-10T08:58:47;65.82;;;39.75;;
43606;SDS011;29197;44.788;10.366;2022-11-10T09:01:39;66.47;;;36.50;;
43606;SDS011;29197;44.788;10.366;2022-11-10T09:04:28;64.85;;;36.22;;
43606;SDS011;29197;44.788;10.366;2022-11-10T09:07:19;60.80;;;34.50;;
43606;SDS011;29197;44.788;10.366;2022-11-10T09:10:08;55.97;;;33.38;;
43606;SDS011;29197;44.788;10.366;2022-11-10T09:12:58;59.50;;;34.03;;
43606;SDS011;29197;44.788;10.366;2022-11-10T09:15:47;52.05;;;32.05;;
43606;SDS011;29197;44.788;10.366;2022-11-10T09:18:36;53.88;;;32.47;;
43606;SDS011;29197;44.788;10.366;2022-11-10T09:21:26;52.92;;;32.20;;
43606;SDS011;29197;44.788;10.366;2022-11-10T09:24:17;52.30;;;30.20;;
43606;SDS011;29197;44.788;10.366;2022-11-10T09:27:06;46.65;;;28.95;;
43606;SDS011;29197;44.788;10.366;2022-11-10T09:29:55;47.30;;;28.00;;
43606;SDS011;29197;44.788;10.366;2022-11-10T09:32:44;45.85;;;28.73;;
43606;SDS011;29197;44.788;10.366;2022-11-10T09:35:34;46.47;;;28.88;;
43606;SDS011;29197;44.788;10.366;2022-11-10T09:38:23;43.88;;;27.35;;
43606;SDS011;29197;44.788;10.366;2022-11-10T09:41:14;44.03;;;27.25;;
43606;SDS011;29197;44.788;10.366;2022-11-10T09:44:05;43.85;;;27.83;;
43606;SDS011;29197;44.788;10.366;2022-11-10T09:47:03;39.95;;;25.60;;
43606;SDS011;29197;44.788;10.366;2022-11-10T09:50:00;41.17;;;26.13;;
43606;SDS011;29197;44.788;10.366;2022-11-10T09:52:52;37.95;;;25.80;;
43606;SDS011;29197;44.788;10.366;2022-11-10T09:55:43;40.47;;;24.55;;
43606;SDS011;29197;44.788;10.366;2022-11-10T09:58:38;39.92;;;24.60;;
43606;SDS011;29197;44.788;10.366;2022-11-10T10:01:32;36.45;;;23.95;;
43606;SDS011;29197;44.788;10.366;2022-11-10T10:04:32;34.10;;;21.80;;
43606;SDS011;29197;44.788;10.366;2022-11-10T10:07:44;39.63;;;25.17;;
43606;SDS011;29197;44.788;10.366;2022-11-10T10:10:40;37.38;;;23.65;;
43606;SDS011;29197;44.788;10.366;2022-11-10T10:13:49;39.55;;;24.08;;
43606;SDS011;29197;44.788;10.366;2022-11-10T10:16:58;36.72;;;22.85;;
43606;SDS011;29197;44.788;10.366;2022-11-10T10:19:53;38.53;;;24.23;;
43606;SDS011;29197;44.788;10.366;2022-11-10T10:22:51;36.42;;;23.92;;
43606;SDS011;29197;44.788;10.366;2022-11-10T10:25:47;34.88;;;22.98;;
43606;SDS011;29197;44.788;10.366;2022-11-10T10:28:41;37.78;;;24.33;;
43606;SDS011;29197;44.788;10.366;2022-11-10T10:31:35;38.75;;;24.85;;
43606;SDS011;29197;44.788;10.366;2022-11-10T10:34:28;37.20;;;23.67;;
43606;SDS011;29197;44.788;10.366;2022-11-10T10:37:21;35.38;;;23.02;;
43606;SDS011;29197;44.788;10.366;2022-11-10T10:40:13;39.92;;;25.42;;
43606;SDS011;29197;44.788;10.366;2022-11-10T10:43:04;37.00;;;24.50;;
43606;SDS011;29197;44.788;10.366;2022-11-10T10:46:04;34.25;;;22.17;;
43606;SDS011;29197;44.788;10.366;2022-11-10T10:49:12;34.92;;;23.00;;
43606;SDS011;29197;44.788;10.366;2022-11-10T10:52:18;33.17;;;21.65;;
43606;SDS011;29197;44.788;10.366;2022-11-10T10:55:11;34.28;;;22.17;;
43606;SDS011;29197;44.788;10.366;2022-11-10T10:58:01;32.55;;;20.70;;
43606;SDS011;29197;44.788;10.366;2022-11-10T11:00:53;33.60;;;20.60;;
43606;SDS011;29197;44.788;10.366;2022-11-10T11:03:46;35.10;;;21.92;;
43606;SDS011;29197;44.788;10.366;2022-11-10T11:06:39;38.35;;;23.55;;
43606;SDS011;29197;44.788;10.366;2022-11-10T11:09:42;33.92;;;22.17;;
43606;SDS011;29197;44.788;10.366;2022-11-10T11:12:32;30.38;;;20.83;;
43606;SDS011;29197;44.788;10.366;2022-11-10T11:15:22;26.80;;;18.33;;
43606;SDS011;29197;44.788;10.366;2022-11-10T11:18:14;27.00;;;17.95;;
43606;SDS011;29197;44.788;10.366;2022-11-10T11:21:13;33.08;;;18.83;;
43606;SDS011;29197;44.788;10.366;2022-11-10T11:24:20;29.13;;;18.17;;
43606;SDS011;29197;44.788;10.366;2022-11-10T11:27:17;26.73;;;17.88;;
43606;SDS011;29197;44.788;10.366;2022-11-10T11:30:19;29.10;;;19.02;;
43606;SDS011;29197;44.788;10.366;2022-11-10T11:33:11;28.02;;;18.88;;
43606;SDS011;29197;44.788;10.366;2022-11-10T11:36:24;32.95;;;19.90;;
43606;SDS011;29197;44.788;10.366;2022-11-10T11:39:32;31.38;;;19.45;;
43606;SDS011;29197;44.788;10.366;2022-11-10T11:42:34;31.17;;;19.77;;
43606;SDS011;29197;44.788;10.366;2022-11-10T11:45:35;28.17;;;18.35;;
43606;SDS011;29197;44.788;10.366;2022-11-10T11:48:42;30.88;;;19.05;;
43606;SDS011;29197;44.788;10.366;2022-11-10T11:51:38;34.03;;;21.73;;
43606;SDS011;29197;44.788;10.366;2022-11-10T11:54:39;38.10;;;24.27;;
43606;SDS011;29197;44.788;10.366;2022-11-10T11:57:43;34.28;;;22.33;;
43606;SDS011;29197;44.788;10.366;2022-11-10T12:00:44;33.72;;;20.63;;
43606;SDS011;29197;44.788;10.366;2022-11-10T12:03:44;37.53;;;22.85;;
43606;SDS011;29197;44.788;10.366;2022-11-10T12:07:08;33.53;;;21.55;;
43606;SDS011;29197;44.788;10.366;2022-11-10T12:10:12;32.90;;;21.90;;
43606;SDS011;29197;44.788;10.366;2022-11-10T12:13:13;33.58;;;21.80;;
43606;SDS011;29197;44.788;10.366;2022-11-10T12:16:14;32.42;;;22.27;;
43606;SDS011;29197;44.788;10.366;2022-11-10T12:19:11;31.08;;;21.85;;
43606;SDS011;29197;44.788;10.366;2022-11-10T12:22:09;31.70;;;21.15;;
43606;SDS011;29197;44.788;10.366;2022-11-10T12:25:09;30.90;;;20.48;;
43606;SDS011;29197;44.788;10.366;2022-11-10T12:28:08;31.60;;;20.65;;
43606;SDS011;29197;44.788;10.366;2022-11-10T12:31:02;30.77;;;20.80;;
43606;SDS011;29197;44.788;10.366;2022-11-10T12:33:57;33.08;;;20.42;;
43606;SDS011;29197;44.788;10.366;2022-11-10T12:36:49;29.17;;;19.70;;
43606;SDS011;29197;44.788;10.366;2022-11-10T12:39:45;28.55;;;19.88;;
43606;SDS011;29197;44.788;10.366;2022-11-10T12:42:40;30.80;;;20.40;;
43606;SDS011;29197;44.788;10.366;2022-11-10T12:45:32;32.08;;;19.67;;
43606;SDS011;29197;44.788;10.366;2022-11-10T12:48:27;31.15;;;20.20;;
43606;SDS011;29197;44.788;10.366;2022-11-10T12:51:31;28.20;;;19.05;;
43606;SDS011;29197;44.788;10.366;2022-11-10T12:54:22;29.27;;;18.77;;
43606;SDS011;29197;44.788;10.366;2022-11-10T12:57:16;30.05;;;20.27;;
43606;SDS011;29197;44.788;10.366;2022-11-10T13:00:21;26.40;;;18.30;;
43606;SDS011;29197;44.788;10.366;2022-11-10T13:03:14;26.75;;;18.90;;
43606;SDS011;29197;44.788;10.366;2022-11-10T13:06:24;27.70;;;19.40;;
43606;SDS011;29197;44.788;10.366;2022-11-10T13:09:22;27.60;;;17.73;;
43606;SDS011;29197;44.788;10.366;2022-11-10T13:12:14;27.40;;;19.55;;
43606;SDS011;29197;44.788;10.366;2022-11-10T13:31:52;28.42;;;19.60;;
43606;SDS011;29197;44.788;10.366;2022-11-10T13:34:44;29.48;;;18.20;;
43606;SDS011;29197;44.788;10.366;2022-11-10T13:37:46;28.65;;;19.75;;
43606;SDS011;29197;44.788;10.366;2022-11-10T13:40:38;29.33;;;21.00;;
43606;SDS011;29197;44.788;10.366;2022-11-10T13:43:29;27.42;;;19.00;;
43606;SDS011;29197;44.788;10.366;2022-11-10T13:46:18;29.27;;;20.42;;
43606;SDS011;29197;44.788;10.366;2022-11-10T13:52:21;30.67;;;19.83;;
43606;SDS011;29197;44.788;10.366;2022-11-10T13:55:17;32.47;;;20.92;;
43606;SDS011;29197;44.788;10.366;2022-11-10T13:58:16;28.73;;;20.20;;
43606;SDS011;29197;44.788;10.366;2022-11-10T14:01:24;32.40;;;20.55;;
43606;SDS011;29197;44.788;10.366;2022-11-10T14:07:29;33.25;;;22.60;;
43606;SDS011;29197;44.788;10.366;2022-11-10T14:10:25;31.35;;;21.45;;
43606;SDS011;29197;44.788;10.366;2022-11-10T14:13:23;35.33;;;22.50;;
43606;SDS011;29197;44.788;10.366;2022-11-10T14:16:20;34.17;;;23.02;;
43606;SDS011;29197;44.788;10.366;2022-11-10T14:19:19;31.58;;;22.88;;
43606;SDS011;29197;44.788;10.366;2022-11-10T14:22:20;34.92;;;23.13;;
43606;SDS011;29197;44.788;10.366;2022-11-10T14:25:16;41.28;;;26.20;;
43606;SDS011;29197;44.788;10.366;2022-11-10T14:28:23;38.17;;;25.23;;
43606;SDS011;29197;44.788;10.366;2022-11-10T14:31:15;36.53;;;24.00;;
43606;SDS011;29197;44.788;10.366;2022-11-10T14:34:11;37.13;;;24.92;;
43606;SDS011;29197;44.788;10.366;2022-11-10T14:37:02;38.20;;;24.20;;
43606;SDS011;29197;44.788;10.366;2022-11-10T14:39:53;43.45;;;26.35;;
43606;SDS011;29197;44.788;10.366;2022-11-10T14:42:44;42.58;;;26.25;;
43606;SDS011;29197;44.788;10.366;2022-11-10T14:45:34;39.45;;;25.27;;
43606;SDS011;29197;44.788;10.366;2022-11-10T14:48:27;41.58;;;25.65;;
43606;SDS011;29197;44.788;10.366;2022-11-10T14:51:18;40.88;;;25.73;;
43606;SDS011;29197;44.788;10.366;2022-11-10T14:54:08;38.65;;;24.80;;
43606;SDS011;29197;44.788;10.366;2022-11-10T14:57:01;35.45;;;23.73;;
43606;SDS011;29197;44.788;10.366;2022-11-10T14:59:54;38.60;;;25.83;;
43606;SDS011;29197;44.788;10.366;2022-11-10T15:02:44;37.90;;;24.38;;
43606;SDS011;29197;44.788;10.366;2022-11-10T15:05:33;45.10;;;26.73;;
43606;SDS011;29197;44.788;10.366;2022-11-10T15:08:22;39.78;;;25.35;;
43606;SDS011;29197;44.788;10.366;2022-11-10T15:14:37;45.17;;;27.02;;
43606;SDS011;29197;44.788;10.366;2022-11-10T15:17:44;38.38;;;24.13;;
43606;SDS011;29197;44.788;10.366;2022-11-10T15:20:35;38.22;;;25.63;;
43606;SDS011;29197;44.788;10.366;2022-11-10T15:23:26;40.92;;;25.80;;
43606;SDS011;29197;44.788;10.366;2022-11-10T15:26:21;40.45;;;25.73;;
43606;SDS011;29197;44.788;10.366;2022-11-10T15:29:18;40.08;;;25.52;;
43606;SDS011;29197;44.788;10.366;2022-11-10T15:32:14;36.15;;;25.08;;
43606;SDS011;29197;44.788;10.366;2022-11-10T15:35:06;41.63;;;26.20;;
43606;SDS011;29197;44.788;10.366;2022-11-10T15:37:58;37.80;;;23.67;;
43606;SDS011;29197;44.788;10.366;2022-11-10T15:40:48;39.20;;;25.50;;
43606;SDS011;29197;44.788;10.366;2022-11-10T15:43:39;39.38;;;25.20;;
43606;SDS011;29197;44.788;10.366;2022-11-10T15:46:27;41.78;;;25.83;;
43606;SDS011;29197;44.788;10.366;2022-11-10T15:49:21;43.20;;;25.38;;
43606;SDS011;29197;44.788;10.366;2022-11-10T15:52:12;41.28;;;25.80;;
43606;SDS011;29197;44.788;10.366;2022-11-10T15:55:03;44.28;;;27.35;;
43606;SDS011;29197;44.788;10.366;2022-11-10T15:57:52;38.05;;;23.98;;
43606;SDS011;29197;44.788;10.366;2022-11-10T16:00:42;39.58;;;25.95;;
43606;SDS011;29197;44.788;10.366;2022-11-10T16:03:31;37.55;;;25.20;;
43606;SDS011;29197;44.788;10.366;2022-11-10T16:06:22;38.97;;;24.48;;
43606;SDS011;29197;44.788;10.366;2022-11-10T16:09:11;41.35;;;25.73;;
43606;SDS011;29197;44.788;10.366;2022-11-10T16:12:00;40.45;;;26.25;;
43606;SDS011;29197;44.788;10.366;2022-11-10T16:14:50;48.55;;;28.00;;
43606;SDS011;29197;44.788;10.366;2022-11-10T16:17:41;43.10;;;25.63;;
43606;SDS011;29197;44.788;10.366;2022-11-10T16:20:30;44.72;;;27.20;;
43606;SDS011;29197;44.788;10.366;2022-11-10T16:23:21;42.58;;;25.92;;
43606;SDS011;29197;44.788;10.366;2022-11-10T16:26:10;41.45;;;26.90;;
43606;SDS011;29197;44.788;10.366;2022-11-10T16:29:04;39.63;;;25.77;;
43606;SDS011;29197;44.788;10.366;2022-11-10T16:31:57;37.13;;;24.98;;
43606;SDS011;29197;44.788;10.366;2022-11-10T16:34:46;41.03;;;25.83;;
43606;SDS011;29197;44.788;10.366;2022-11-10T16:37:35;42.40;;;25.98;;
43606;SDS011;29197;44.788;10.366;2022-11-10T16:40:25;40.25;;;24.40;;
43606;SDS011;29197;44.788;10.366;2022-11-10T16:43:15;37.35;;;25.48;;
43606;SDS011;29197;44.788;10.366;2022-11-10T16:46:16;42.78;;;26.45;;
43606;SDS011;29197;44.788;10.366;2022-11-10T16:49:14;37.38;;;25.55;;
43606;SDS011;29197;44.788;10.366;2022-11-10T16:52:12;46.33;;;27.05;;
43606;SDS011;29197;44.788;10.366;2022-11-10T16:55:03;46.17;;;29.42;;
43606;SDS011;29197;44.788;10.366;2022-11-10T16:57:54;43.05;;;27.85;;
43606;SDS011;29197;44.788;10.366;2022-11-10T17:00:43;46.03;;;26.77;;
43606;SDS011;29197;44.788;10.366;2022-11-10T17:03:35;41.47;;;25.58;;